createdAt,value
2023-05-14T00:01:00.002Z,15.52
2023-05-14T00:03:27.968Z,15.46
2023-05-14T00:05:56.011Z,15.25
2023-05-14T00:08:23.775Z,15.13
2023-05-14T00:10:51.706Z,14.41
2023-05-14T00:13:19.586Z,14.58
2023-05-14T00:15:48.837Z,14.93
2023-05-14T00:18:16.664Z,15.06
2023-05-14T00:20:44.482Z,15.06
2023-05-14T00:23:12.302Z,14.98
2023-05-14T00:25:40.115Z,15.20
2023-05-14T00:28:07.975Z,15.12
2023-05-14T00:30:35.833Z,14.78
2023-05-14T00:33:05.214Z,14.85
2023-05-14T00:35:35.180Z,14.59
2023-05-14T00:38:03.367Z,14.77
2023-05-14T00:40:31.291Z,14.80
2023-05-14T00:42:59.148Z,15.14
2023-05-14T00:45:27.393Z,15.14
2023-05-14T00:47:55.986Z,15.34
2023-05-14T00:50:25.967Z,14.76
2023-05-14T00:52:54.796Z,14.79
2023-05-14T00:55:23.740Z,14.98
2023-05-14T00:57:54.641Z,15.21
2023-05-14T01:00:22.780Z,15.05
2023-05-14T01:02:50.814Z,14.94
2023-05-14T01:05:18.957Z,14.51
2023-05-14T01:08:05.265Z,14.54
2023-05-14T01:10:42.609Z,14.60
2023-05-14T01:13:21.116Z,14.63
2023-05-14T01:15:50.655Z,14.69
2023-05-14T01:18:20.636Z,15.03
2023-05-14T01:20:51.418Z,15.01
2023-05-14T01:23:21.264Z,14.91
2023-05-14T01:25:49.127Z,14.42
2023-05-14T01:28:19.973Z,14.32
2023-05-14T01:30:59.115Z,14.41
2023-05-14T01:33:30.674Z,14.45
2023-05-14T01:35:58.643Z,14.27
2023-05-14T01:38:30.793Z,14.27
2023-05-14T01:41:00.422Z,14.35
2023-05-14T01:43:28.703Z,14.48
2023-05-14T01:45:57.022Z,14.54
2023-05-14T01:48:25.139Z,14.72
2023-05-14T01:50:53.133Z,14.81
2023-05-14T01:53:21.048Z,14.97
2023-05-14T01:55:50.206Z,14.92
2023-05-14T01:58:18.024Z,14.87
2023-05-14T02:00:45.780Z,14.89
2023-05-14T02:03:13.912Z,14.63
2023-05-14T02:05:41.761Z,14.60
2023-05-14T02:08:09.540Z,14.57
2023-05-14T02:10:37.357Z,14.65
2023-05-14T02:13:06.567Z,14.87
2023-05-14T02:15:34.441Z,14.65
2023-05-14T02:18:02.378Z,14.36
2023-05-14T02:20:30.238Z,14.38
2023-05-14T02:22:58.032Z,13.90
2023-05-14T02:25:25.972Z,14.14
2023-05-14T02:27:53.706Z,14.48
2023-05-14T02:30:23.448Z,14.56
2023-05-14T02:32:51.633Z,14.69
2023-05-14T02:35:19.840Z,14.72
2023-05-14T02:37:47.769Z,14.77
2023-05-14T02:40:15.971Z,14.63
2023-05-14T02:42:43.863Z,14.73
2023-05-14T02:45:12.302Z,14.62
2023-05-14T02:47:41.828Z,14.34
2023-05-14T02:50:11.260Z,14.49
2023-05-14T02:52:39.089Z,14.42
2023-05-14T02:55:08.162Z,14.28
2023-05-14T02:57:36.045Z,14.12
2023-05-14T03:00:04.553Z,14.21
2023-05-14T03:02:32.792Z,14.00
2023-05-14T03:05:03.431Z,14.00
2023-05-14T03:07:31.229Z,14.13
2023-05-14T03:10:00.381Z,13.92
2023-05-14T03:12:28.249Z,13.84
2023-05-14T03:14:56.099Z,13.80
2023-05-14T03:17:26.214Z,13.90
2023-05-14T03:19:53.813Z,13.69
2023-05-14T03:22:23.035Z,13.62
2023-05-14T03:24:50.793Z,13.68
2023-05-14T03:27:18.853Z,13.91
2023-05-14T03:29:46.642Z,13.95
2023-05-14T03:32:14.536Z,13.97
2023-05-14T03:34:42.764Z,13.95
2023-05-14T03:37:10.546Z,13.94
2023-05-14T03:39:39.910Z,13.69
2023-05-14T03:42:07.885Z,13.89
2023-05-14T03:44:35.799Z,13.82
2023-05-14T03:47:03.695Z,13.89
2023-05-14T03:49:31.582Z,13.84
2023-05-14T03:51:59.478Z,13.55
2023-05-14T03:54:27.383Z,13.64
2023-05-14T03:56:56.498Z,13.77
2023-05-14T03:59:24.327Z,13.83
2023-05-14T04:01:52.121Z,13.84
2023-05-14T04:04:19.953Z,13.66
2023-05-14T04:06:47.794Z,13.49
2023-05-14T04:09:15.606Z,13.80
2023-05-14T04:11:43.716Z,13.98
2023-05-14T04:14:12.909Z,14.08
2023-05-14T04:16:40.967Z,13.93
2023-05-14T04:19:08.840Z,13.99
2023-05-14T04:21:36.640Z,13.84
2023-05-14T04:24:04.966Z,13.64
2023-05-14T04:26:32.725Z,13.21
2023-05-14T04:29:06.813Z,13.08
2023-05-14T04:31:36.415Z,13.08
2023-05-14T04:34:04.284Z,13.69
2023-05-14T04:36:32.372Z,13.92
2023-05-14T04:39:00.397Z,14.11
2023-05-14T04:41:28.229Z,13.81
2023-05-14T04:43:57.542Z,13.68
2023-05-14T04:46:25.557Z,13.75
2023-05-14T04:48:54.722Z,13.70
2023-05-14T04:51:22.479Z,13.40
2023-05-14T04:53:50.364Z,13.64
2023-05-14T04:56:20.514Z,14.40
2023-05-14T04:58:48.292Z,14.99
2023-05-14T05:01:16.413Z,15.42
2023-05-14T05:03:44.565Z,15.51
2023-05-14T05:06:13.810Z,15.24
2023-05-14T05:08:41.748Z,15.80
2023-05-14T05:11:09.594Z,15.95
2023-05-14T05:13:37.625Z,15.87
2023-05-14T05:16:06.230Z,16.67
2023-05-14T05:18:34.215Z,16.70
2023-05-14T05:21:02.550Z,16.83
2023-05-14T05:23:31.601Z,17.17
2023-05-14T05:25:59.366Z,17.50
2023-05-14T05:28:27.151Z,17.84
2023-05-14T05:30:55.343Z,17.89
2023-05-14T05:33:23.353Z,17.53
2023-05-14T05:35:52.472Z,18.30
2023-05-14T05:38:20.921Z,17.90
2023-05-14T05:40:50.083Z,18.65
2023-05-14T05:43:18.034Z,18.77
2023-05-14T05:45:46.512Z,19.66
2023-05-14T05:48:14.492Z,18.68
2023-05-14T05:50:44.166Z,17.54
2023-05-14T05:53:12.424Z,19.42
2023-05-14T05:55:40.250Z,18.76
2023-05-14T05:58:09.625Z,18.27
2023-05-14T06:00:37.719Z,19.66
2023-05-14T06:03:05.931Z,20.00
2023-05-14T06:05:33.891Z,19.58
2023-05-14T06:08:01.672Z,18.96
2023-05-14T06:10:30.000Z,19.53
2023-05-14T06:12:58.050Z,19.04
2023-05-14T06:15:27.261Z,20.25
2023-05-14T06:17:55.084Z,20.89
2023-05-14T06:20:23.094Z,19.74
2023-05-14T06:22:51.185Z,20.76
2023-05-14T06:25:20.759Z,20.86
2023-05-14T06:27:48.562Z,21.08
2023-05-14T06:30:16.788Z,20.73
2023-05-14T06:32:45.986Z,21.05
2023-05-14T06:35:13.948Z,21.66
2023-05-14T06:37:41.684Z,21.58
2023-05-14T06:40:11.226Z,21.66
2023-05-14T06:42:39.210Z,22.14
2023-05-14T06:45:09.010Z,21.85
2023-05-14T06:47:36.839Z,21.21
2023-05-14T06:52:34.900Z,21.74
2023-05-14T06:55:02.679Z,22.29
2023-05-14T06:57:30.571Z,21.94
2023-05-14T06:59:58.341Z,22.66
2023-05-14T07:02:26.243Z,21.71
2023-05-14T07:04:54.046Z,23.20
2023-05-14T07:07:23.176Z,23.28
2023-05-14T07:09:51.042Z,24.01
2023-05-14T07:12:18.963Z,24.20
2023-05-14T07:14:46.806Z,24.21
2023-05-14T07:17:14.560Z,23.47
2023-05-14T07:19:42.883Z,24.11
2023-05-14T07:22:10.630Z,25.09
2023-05-14T07:24:40.987Z,24.44
2023-05-14T07:27:12.469Z,23.64
2023-05-14T07:29:48.362Z,24.75
2023-05-14T07:32:16.313Z,23.07
2023-05-14T07:34:44.406Z,25.53
2023-05-14T07:37:13.370Z,25.42
2023-05-14T07:39:44.888Z,25.02
2023-05-14T07:42:21.946Z,25.12
2023-05-14T07:44:52.722Z,24.98
2023-05-14T07:47:20.750Z,24.78
2023-05-14T07:49:48.683Z,24.45
2023-05-14T07:52:16.520Z,24.16
2023-05-14T07:54:45.723Z,23.76
2023-05-14T07:57:13.541Z,23.90
2023-05-14T07:59:43.866Z,24.12
2023-05-14T08:02:12.749Z,23.87
2023-05-14T08:04:40.628Z,25.45
2023-05-14T08:07:08.575Z,26.37
2023-05-14T08:09:36.580Z,25.29
2023-05-14T08:12:07.463Z,25.91
2023-05-14T08:14:35.229Z,25.24
2023-05-14T08:17:03.466Z,25.49
2023-05-14T08:19:31.338Z,25.52
2023-05-14T08:21:59.128Z,26.15
2023-05-14T08:24:26.981Z,26.17
2023-05-14T08:26:54.834Z,26.13
2023-05-14T08:29:24.095Z,26.23
2023-05-14T08:31:52.056Z,25.64
2023-05-14T08:34:20.032Z,24.77
2023-05-14T08:36:47.792Z,25.82
2023-05-14T08:39:15.733Z,25.49
2023-05-14T08:41:44.892Z,25.59
2023-05-14T08:44:15.000Z,24.98
2023-05-14T08:46:44.220Z,24.98
2023-05-14T08:49:18.779Z,25.28
2023-05-14T08:51:48.487Z,26.31
2023-05-14T08:54:18.015Z,25.53
2023-05-14T08:56:47.250Z,26.40
2023-05-14T08:59:15.331Z,25.61
2023-05-14T09:01:49.457Z,26.78
2023-05-14T09:04:22.132Z,27.00
2023-05-14T09:06:51.983Z,26.77
2023-05-14T09:09:22.416Z,26.41
2023-05-14T09:11:51.753Z,25.82
2023-05-14T09:14:21.159Z,25.82
2023-05-14T09:16:52.187Z,26.39
2023-05-14T09:19:21.850Z,27.63
2023-05-14T09:21:50.860Z,27.44
2023-05-14T09:24:22.733Z,26.03
2023-05-14T09:26:53.552Z,25.88
2023-05-14T09:29:21.664Z,26.17
2023-05-14T09:31:53.157Z,26.79
2023-05-14T09:34:26.284Z,27.07
2023-05-14T09:36:58.321Z,26.48
2023-05-14T09:39:28.005Z,27.40
2023-05-14T09:41:56.485Z,27.22
2023-05-14T09:44:26.498Z,26.69
2023-05-14T09:46:56.903Z,26.22
2023-05-14T09:49:24.788Z,26.31
2023-05-14T09:51:52.743Z,27.95
2023-05-14T09:54:20.987Z,28.08
2023-05-14T09:56:48.840Z,28.18
2023-05-14T09:59:16.811Z,27.98
2023-05-14T10:01:45.021Z,28.50
2023-05-14T10:04:15.877Z,28.55
2023-05-14T10:06:51.825Z,28.84
2023-05-14T10:09:26.329Z,28.05
2023-05-14T10:12:02.282Z,27.13
2023-05-14T10:14:37.396Z,25.67
2023-05-14T10:17:17.932Z,27.04
2023-05-14T10:19:53.518Z,27.54
2023-05-14T10:22:32.328Z,26.00
2023-05-14T10:25:01.435Z,26.88
2023-05-14T10:27:29.335Z,27.24
2023-05-14T10:29:57.896Z,28.29
2023-05-14T10:32:27.199Z,28.64
2023-05-14T10:34:56.374Z,28.46
2023-05-14T10:37:27.134Z,29.15
2023-05-14T10:39:59.909Z,28.46
2023-05-14T10:42:33.168Z,29.14
2023-05-14T10:45:03.011Z,29.01
2023-05-14T10:47:32.632Z,27.79
2023-05-14T10:50:06.110Z,28.10
2023-05-14T10:52:35.187Z,27.75
2023-05-14T10:55:07.788Z,28.72
2023-05-14T10:57:38.796Z,28.60
2023-05-14T11:00:08.973Z,28.12
2023-05-14T11:02:39.648Z,29.58
2023-05-14T11:05:13.946Z,29.09
2023-05-14T11:07:44.244Z,28.79
2023-05-14T11:10:14.774Z,29.55
2023-05-14T11:12:45.270Z,29.30
2023-05-14T11:15:16.585Z,29.23
2023-05-14T11:17:46.108Z,29.44
2023-05-14T11:20:16.782Z,30.70
2023-05-14T11:22:46.428Z,30.21
2023-05-14T11:25:15.839Z,29.92
2023-05-14T11:27:48.001Z,29.36
2023-05-14T11:30:17.853Z,29.81
2023-05-14T11:32:50.287Z,29.64
2023-05-14T11:35:19.819Z,30.40
2023-05-14T11:37:52.493Z,29.84
2023-05-14T11:40:21.442Z,30.61
2023-05-14T11:42:52.686Z,30.60
2023-05-14T11:45:27.286Z,30.36
2023-05-14T11:47:55.226Z,30.49
2023-05-14T11:50:24.955Z,29.16
2023-05-14T11:52:58.262Z,28.60
2023-05-14T11:55:26.224Z,28.81
2023-05-14T11:57:54.735Z,28.82
2023-05-14T12:00:28.791Z,26.82
2023-05-14T12:03:00.126Z,28.19
2023-05-14T12:05:29.355Z,28.64
2023-05-14T12:07:57.225Z,29.17
2023-05-14T12:10:25.367Z,28.85
2023-05-14T12:12:53.452Z,28.80
2023-05-14T12:15:22.197Z,28.47
2023-05-14T12:17:52.977Z,28.99
2023-05-14T12:20:21.124Z,29.06
2023-05-14T12:22:50.303Z,28.58
2023-05-14T12:25:18.355Z,28.39
2023-05-14T12:27:46.744Z,28.50
2023-05-14T12:32:46.409Z,28.75
2023-05-14T12:35:14.355Z,29.48
2023-05-14T12:37:42.839Z,29.80
2023-05-14T12:40:13.278Z,28.94
2023-05-14T12:42:41.625Z,29.43
2023-05-14T12:45:10.175Z,28.59
2023-05-14T12:47:38.429Z,29.44
2023-05-14T12:50:08.007Z,29.62
2023-05-14T12:52:39.251Z,29.34
2023-05-14T12:55:09.972Z,29.02
2023-05-14T12:57:40.140Z,29.54
2023-05-14T13:00:21.578Z,30.36
2023-05-14T13:02:49.432Z,29.21
2023-05-14T13:05:17.383Z,29.04
2023-05-14T13:07:45.333Z,28.94
2023-05-14T13:10:13.291Z,29.11
2023-05-14T13:12:42.442Z,28.66
2023-05-14T13:15:11.738Z,27.94
2023-05-14T13:17:41.391Z,27.90
2023-05-14T13:20:10.645Z,27.23
2023-05-14T13:22:38.518Z,27.28
2023-05-14T13:25:08.909Z,27.53
2023-05-14T13:27:37.019Z,27.31
2023-05-14T13:30:08.013Z,26.74
2023-05-14T13:32:35.833Z,26.49
2023-05-14T13:35:03.707Z,26.31
2023-05-14T13:37:31.534Z,26.58
2023-05-14T13:39:59.293Z,26.89
2023-05-14T13:42:27.106Z,27.09
2023-05-14T13:44:56.249Z,27.01
2023-05-14T13:47:25.894Z,26.96
2023-05-14T13:49:54.277Z,27.06
2023-05-14T13:52:22.455Z,27.19
2023-05-14T13:54:50.347Z,28.01
2023-05-14T13:57:18.248Z,27.32
2023-05-14T13:59:47.980Z,26.93
2023-05-14T14:02:16.525Z,27.26
2023-05-14T14:04:45.731Z,26.53
2023-05-14T14:07:13.383Z,26.71
2023-05-14T14:09:41.143Z,26.64
2023-05-14T14:12:10.031Z,27.30
2023-05-14T14:14:37.890Z,27.39
2023-05-14T14:17:06.173Z,26.19
2023-05-14T14:19:33.932Z,26.37
2023-05-14T14:22:03.499Z,26.20
2023-05-14T14:24:31.592Z,26.66
2023-05-14T14:26:59.389Z,26.51
2023-05-14T14:29:28.832Z,26.13
2023-05-14T14:31:56.693Z,26.58
2023-05-14T14:34:24.627Z,26.42
2023-05-14T14:36:52.463Z,25.94
2023-05-14T14:39:25.171Z,26.33
2023-05-14T14:41:53.055Z,25.84
2023-05-14T14:44:20.801Z,26.40
2023-05-14T14:46:48.706Z,26.83
2023-05-14T14:49:16.475Z,26.83
2023-05-14T14:51:46.912Z,26.73
2023-05-14T14:54:17.048Z,26.53
2023-05-14T14:56:46.398Z,26.29
2023-05-14T14:59:14.163Z,26.48
2023-05-14T15:01:42.076Z,26.17
2023-05-14T15:04:10.120Z,26.28
2023-05-14T15:06:37.994Z,26.07
2023-05-14T15:09:05.776Z,25.41
2023-05-14T15:11:34.456Z,26.10
2023-05-14T15:14:04.900Z,26.21
2023-05-14T15:16:32.720Z,26.90
2023-05-14T15:19:00.665Z,25.83
2023-05-14T15:21:28.784Z,25.26
2023-05-14T15:23:56.928Z,24.82
2023-05-14T15:26:24.707Z,24.74
2023-05-14T15:28:52.486Z,24.86
2023-05-14T15:31:22.398Z,24.61
2023-05-14T15:33:50.251Z,24.86
2023-05-14T15:36:18.088Z,24.85
2023-05-14T15:38:46.064Z,25.21
2023-05-14T15:41:13.932Z,25.60
2023-05-14T15:43:41.712Z,25.46
2023-05-14T15:46:09.629Z,24.98
2023-05-14T15:48:38.871Z,25.04
2023-05-14T15:51:06.743Z,24.89
2023-05-14T15:53:34.572Z,25.07
2023-05-14T15:56:02.516Z,24.54
2023-05-14T15:58:30.374Z,24.62
2023-05-14T16:00:58.101Z,25.29
2023-05-14T16:03:25.970Z,25.15
2023-05-14T16:05:56.497Z,25.01
2023-05-14T16:08:24.353Z,24.92
2023-05-14T16:10:52.211Z,24.45
2023-05-14T16:13:20.729Z,24.91
2023-05-14T16:15:48.736Z,24.93
2023-05-14T16:18:16.748Z,24.92
2023-05-14T16:20:44.661Z,25.21
2023-05-14T16:23:13.958Z,25.33
2023-05-14T16:25:41.710Z,25.33
2023-05-14T16:28:09.527Z,24.92
2023-05-14T16:30:37.388Z,25.11
2023-05-14T16:33:06.263Z,25.04
2023-05-14T16:35:34.978Z,24.57
2023-05-14T16:38:02.855Z,25.21
2023-05-14T16:40:32.059Z,24.91
2023-05-14T16:42:59.814Z,24.97
2023-05-14T16:45:27.762Z,24.82
2023-05-14T16:47:55.563Z,25.16
2023-05-14T16:50:23.405Z,24.58
2023-05-14T16:52:51.650Z,24.35
2023-05-14T16:55:20.565Z,24.27
2023-05-14T16:57:49.860Z,24.72
2023-05-14T17:00:17.960Z,25.00
2023-05-14T17:02:48.950Z,24.82
2023-05-14T17:05:17.474Z,24.22
2023-05-14T17:07:45.370Z,23.91
2023-05-14T17:10:13.197Z,24.10
2023-05-14T17:12:40.947Z,24.15
2023-05-14T17:15:11.708Z,23.85
2023-05-14T17:17:39.771Z,23.86
2023-05-14T17:20:09.075Z,23.91
2023-05-14T17:22:36.974Z,23.68
2023-05-14T17:25:05.777Z,24.12
2023-05-14T17:27:33.790Z,24.01
2023-05-14T17:30:01.745Z,23.87
2023-05-14T17:32:31.209Z,23.80
2023-05-14T17:34:59.306Z,23.64
2023-05-14T17:37:27.285Z,23.82
2023-05-14T17:39:55.189Z,23.80
2023-05-14T17:42:23.083Z,24.09
2023-05-14T17:44:50.813Z,24.12
2023-05-14T17:47:20.573Z,23.73
2023-05-14T17:49:50.866Z,23.92
2023-05-14T17:52:19.145Z,23.62
2023-05-14T17:54:46.886Z,24.08
2023-05-14T17:57:14.788Z,24.02
2023-05-14T17:59:45.090Z,23.74
2023-05-14T18:02:12.928Z,23.83
2023-05-14T18:04:40.773Z,23.73
2023-05-14T18:07:09.986Z,23.26
2023-05-14T18:09:37.766Z,23.38
2023-05-14T18:12:06.522Z,23.36
2023-05-14T18:14:34.304Z,23.58
2023-05-14T18:17:02.363Z,23.85
2023-05-14T18:19:30.409Z,23.93
2023-05-14T18:21:58.273Z,24.13
2023-05-14T18:24:27.471Z,24.08
2023-05-14T18:26:55.950Z,24.21
2023-05-14T18:29:23.903Z,24.23
2023-05-14T18:31:51.783Z,24.23
2023-05-14T18:34:22.074Z,24.32
2023-05-14T18:36:50.102Z,24.12
2023-05-14T18:39:17.953Z,24.01
2023-05-14T18:41:47.132Z,24.12
2023-05-14T18:44:14.886Z,24.14
2023-05-14T18:46:43.878Z,23.78
2023-05-14T18:49:11.723Z,23.68
2023-05-14T18:51:39.589Z,23.56
2023-05-14T18:54:07.389Z,23.48
2023-05-14T18:56:37.819Z,23.25
2023-05-14T18:59:07.011Z,23.15
2023-05-14T19:01:34.936Z,22.96
2023-05-14T19:04:05.142Z,23.09
2023-05-14T19:06:33.681Z,23.19
2023-05-14T19:09:02.545Z,23.13
2023-05-14T19:11:30.400Z,22.85
2023-05-14T19:13:58.333Z,22.65
2023-05-14T19:16:27.725Z,22.68
2023-05-14T19:18:55.431Z,22.34
2023-05-14T19:21:23.330Z,21.80
2023-05-14T19:23:51.120Z,21.43
2023-05-14T19:26:19.638Z,21.41
2023-05-14T19:28:47.872Z,21.16
2023-05-14T19:31:16.122Z,21.20
2023-05-14T19:33:47.051Z,21.27
2023-05-14T19:36:14.798Z,20.88
2023-05-14T19:38:44.747Z,20.67
2023-05-14T19:41:12.586Z,20.45
2023-05-14T19:43:40.478Z,20.41
2023-05-14T19:46:08.574Z,20.42
2023-05-14T19:48:36.421Z,20.30
2023-05-14T19:51:05.639Z,20.33
2023-05-14T19:53:33.604Z,19.69
2023-05-14T19:56:01.967Z,19.78
2023-05-14T19:58:29.814Z,19.91
2023-05-14T20:00:58.304Z,19.38
2023-05-14T20:03:26.561Z,19.11
2023-05-14T20:05:55.889Z,19.20
2023-05-14T20:08:25.343Z,19.04
2023-05-14T20:10:53.273Z,18.91
2023-05-14T20:13:23.121Z,18.83
2023-05-14T20:15:52.359Z,19.11
2023-05-14T20:18:21.670Z,19.00
2023-05-14T20:21:38.920Z,18.52
2023-05-14T20:24:20.712Z,18.49
2023-05-14T20:26:48.520Z,18.54
2023-05-14T20:29:18.691Z,18.41
2023-05-14T20:31:46.926Z,18.34
2023-05-14T20:34:14.730Z,17.94
2023-05-14T20:36:42.794Z,17.76
2023-05-14T20:39:14.140Z,17.97
2023-05-14T20:41:45.545Z,18.40
2023-05-14T20:44:14.455Z,18.44
2023-05-14T20:46:43.457Z,18.07
2023-05-14T20:49:13.648Z,18.05
2023-05-14T20:51:42.059Z,17.86
2023-05-14T20:54:09.976Z,17.68
2023-05-14T20:56:37.745Z,17.64
2023-05-14T20:59:13.323Z,17.90
2023-05-14T21:01:42.563Z,17.84
2023-05-14T21:04:10.631Z,17.84
2023-05-14T21:06:40.931Z,17.30
2023-05-14T21:09:08.902Z,17.53
2023-05-14T21:11:36.652Z,17.45
2023-05-14T21:14:04.582Z,17.43
2023-05-14T21:16:34.204Z,17.37
2023-05-14T21:19:02.582Z,17.27
2023-05-14T21:21:30.440Z,17.14
2023-05-14T21:23:59.325Z,17.33
2023-05-14T21:26:27.486Z,16.94
2023-05-14T21:28:55.277Z,16.96
2023-05-14T21:31:24.521Z,16.54
2023-05-14T21:33:53.659Z,16.51
2023-05-14T21:36:21.530Z,16.90
2023-05-14T21:38:49.427Z,17.20
2023-05-14T21:41:17.492Z,16.99
2023-05-14T21:43:45.547Z,17.21
2023-05-14T21:46:13.668Z,17.24
2023-05-14T21:48:41.599Z,17.34
2023-05-14T21:51:10.870Z,17.27
2023-05-14T21:53:38.741Z,17.05
2023-05-14T21:56:08.215Z,16.90
2023-05-14T21:58:37.075Z,16.91
2023-05-14T22:01:05.063Z,16.96
2023-05-14T22:03:33.180Z,16.62
2023-05-14T22:06:01.571Z,16.80
2023-05-14T22:08:31.067Z,16.53
2023-05-14T22:10:59.026Z,16.46
2023-05-14T22:13:26.915Z,16.67
2023-05-14T22:16:01.466Z,16.41
2023-05-14T22:18:37.346Z,16.53
2023-05-14T22:21:06.840Z,16.33
2023-05-14T22:23:36.149Z,16.48
2023-05-14T22:26:05.477Z,16.06
2023-05-14T22:28:33.266Z,16.51
2023-05-14T22:31:01.210Z,16.20
2023-05-14T22:33:29.019Z,16.32
2023-05-14T22:35:56.832Z,15.61
2023-05-14T22:38:24.732Z,16.01
2023-05-14T22:40:53.878Z,15.91
2023-05-14T22:43:21.684Z,16.02
2023-05-14T22:45:49.612Z,16.06
2023-05-14T22:48:17.778Z,15.71
2023-05-14T22:50:45.646Z,15.65
2023-05-14T22:53:13.544Z,15.73
2023-05-14T22:55:41.424Z,16.05
2023-05-14T22:58:10.667Z,15.69
2023-05-14T23:00:38.516Z,15.54
2023-05-14T23:03:06.449Z,15.43
2023-05-14T23:05:34.501Z,15.43
2023-05-14T23:08:02.482Z,15.09
2023-05-14T23:10:30.333Z,15.25
2023-05-14T23:12:58.176Z,15.52
2023-05-14T23:15:27.704Z,15.47
2023-05-14T23:17:55.762Z,15.68
2023-05-14T23:20:23.630Z,15.47
2023-05-14T23:22:51.460Z,15.39
2023-05-14T23:25:19.375Z,15.59
2023-05-14T23:27:47.931Z,15.72
2023-05-14T23:30:15.955Z,15.69
2023-05-14T23:32:45.281Z,15.34
2023-05-14T23:35:13.159Z,15.28
2023-05-14T23:37:46.993Z,15.36
2023-05-14T23:40:15.602Z,15.51
2023-05-14T23:42:44.765Z,15.54
2023-05-14T23:45:14.216Z,15.77
2023-05-14T23:47:42.637Z,15.79
2023-05-14T23:50:12.232Z,15.72
2023-05-14T23:52:40.243Z,15.48
2023-05-14T23:55:08.916Z,14.89
2023-05-14T23:57:37.043Z,14.98
